Time;durP1;ratioP1;P1;durP2;ratioP2;P2;SDS_P1;SDS_P2;PMS_P1;PMS_P2;Temp;Humidity;BMP_temperature;BMP_pressure;BME280_temperature;BME280_humidity;BME280_pressure;Samples;Min_cycle;Max_cycle;Signal;HPM_P1;HPM_P2
2023/07/31 00:00:14;;;;;;;4.23;2.07;;;;;;;;;;4934030;29;20191;-65
2023/07/31 00:02:41;;;;;;;2.60;2.00;;;;;;;;;;4934066;29;20186;-65
2023/07/31 00:05:08;;;;;;;5.67;1.90;;;;;;;;;;4934028;29;20566;-66
2023/07/31 00:07:35;;;;;;;3.57;2.10;;;;;;;;;;4933034;29;20194;-66
2023/07/31 00:10:02;;;;;;;3.40;2.00;;;;;;;;;;4934037;29;20199;-65
2023/07/31 00:12:29;;;;;;;2.10;1.90;;;;;;;;;;4933415;29;20278;-66
2023/07/31 00:14:55;;;;;;;2.00;1.80;;;;;;;;;;4933857;29;20274;-66
2023/07/31 00:17:22;;;;;;;4.87;2.03;;;;;;;;;;4933873;29;20563;-66
2023/07/31 00:19:50;;;;;;;2.67;2.10;;;;;;;;;;4933724;29;20194;-66
2023/07/31 00:22:17;;;;;;;2.80;1.73;;;;;;;;;;4933827;29;20210;-65
2023/07/31 00:24:43;;;;;;;7.83;2.83;;;;;;;;;;4933400;29;20277;-66
2023/07/31 00:27:10;;;;;;;3.90;2.00;;;;;;;;;;4933503;29;20234;-66
2023/07/31 00:29:37;;;;;;;3.63;1.87;;;;;;;;;;4933636;29;20190;-66
2023/07/31 00:32:04;;;;;;;2.53;2.10;;;;;;;;;;4933496;29;20194;-66
2023/07/31 00:34:31;;;;;;;3.57;2.20;;;;;;;;;;4933036;29;20680;-66
2023/07/31 00:36:57;;;;;;;2.60;2.30;;;;;;;;;;4933490;29;20658;-66
2023/07/31 00:39:41;;;;;;;3.57;2.20;;;;;;;;;;4933653;29;20186;-66
2023/07/31 00:42:08;;;;;;;3.53;2.20;;;;;;;;;;4933355;29;20195;-66
2023/07/31 00:44:52;;;;;;;2.33;2.00;;;;;;;;;;4932930;29;20159;-66
2023/07/31 00:47:20;;;;;;;5.67;2.37;;;;;;;;;;4916340;29;20237;-66
2023/07/31 00:49:47;;;;;;;4.13;2.20;;;;;;;;;;4931928;29;20203;-66
2023/07/31 00:52:13;;;;;;;2.40;2.10;;;;;;;;;;4916201;29;20193;-66
2023/07/31 00:54:40;;;;;;;6.07;2.20;;;;;;;;;;4922709;29;20273;-66
2023/07/31 00:57:08;;;;;;;5.37;1.90;;;;;;;;;;4952085;29;20190;-66
2023/07/31 00:59:34;;;;;;;3.97;1.80;;;;;;;;;;4950854;29;20199;-66
2023/07/31 01:02:02;;;;;;;3.03;2.10;;;;;;;;;;4952070;29;20306;-66
2023/07/31 01:04:28;;;;;;;5.83;1.90;;;;;;;;;;4919334;29;20209;-66
2023/07/31 01:07:01;;;;;;;4.40;2.37;;;;;;;;;;4951906;29;20250;-66
2023/07/31 01:09:37;;;;;;;3.27;2.30;;;;;;;;;;4951856;29;20202;-66
2023/07/31 01:47:47;;;;;;;5.10;2.37;;;;;;;;;;4951633;28;20372;-66
2023/07/31 01:50:13;;;;;;;3.70;2.40;;;;;;;;;;4951293;29;20593;-67
2023/07/31 01:52:41;;;;;;;2.57;1.90;;;;;;;;;;4951342;29;20550;-66
2023/07/31 01:55:07;;;;;;;3.70;1.93;;;;;;;;;;4940390;29;20191;-66
2023/07/31 01:57:35;;;;;;;2.57;1.97;;;;;;;;;;4930769;29;20249;-66
2023/07/31 02:00:01;;;;;;;4.37;2.47;;;;;;;;;;4931899;29;20199;-66
2023/07/31 02:02:37;;;;;;;3.23;1.87;;;;;;;;;;4932345;29;20205;-65
2023/07/31 02:05:21;;;;;;;4.00;2.50;;;;;;;;;;4915072;29;20179;-66
2023/07/31 02:07:48;;;;;;;3.47;1.90;;;;;;;;;;4932099;29;20195;-66
2023/07/31 02:10:32;;;;;;;3.13;2.00;;;;;;;;;;4914869;29;20175;-66
2023/07/31 02:12:59;;;;;;;3.80;2.10;;;;;;;;;;4932005;29;20190;-66
2023/07/31 02:15:43;;;;;;;2.73;1.67;;;;;;;;;;4931995;29;20181;-66
2023/07/31 02:18:10;;;;;;;2.80;1.77;;;;;;;;;;4931032;29;20273;-66
2023/07/31 02:20:36;;;;;;;3.13;1.80;;;;;;;;;;4932186;29;20195;-66
2023/07/31 02:23:03;;;;;;;5.03;1.90;;;;;;;;;;4932037;29;20194;-66
2023/07/31 02:25:30;;;;;;;3.60;2.20;;;;;;;;;;4930677;29;20199;-66
2023/07/31 02:28:14;;;;;;;4.10;2.20;;;;;;;;;;4931826;29;20695;-66
2023/07/31 02:30:43;;;;;;;3.90;1.90;;;;;;;;;;4933325;29;20191;-66
2023/07/31 02:33:10;;;;;;;2.77;2.10;;;;;;;;;;4918521;29;20270;-66
2023/07/31 02:35:37;;;;;;;3.77;1.90;;;;;;;;;;4936162;29;20187;-66
2023/07/31 02:38:04;;;;;;;5.17;2.10;;;;;;;;;;4935735;29;20349;-66
2023/07/31 02:40:48;;;;;;;4.13;2.13;;;;;;;;;;4935689;29;20170;-66
2023/07/31 02:43:15;;;;;;;5.07;2.00;;;;;;;;;;4935364;29;20199;-66
2023/07/31 02:46:00;;;;;;;2.97;1.97;;;;;;;;;;4935810;29;20175;-66
2023/07/31 02:48:27;;;;;;;4.07;2.20;;;;;;;;;;4935464;29;20324;-66
2023/07/31 02:50:53;;;;;;;3.67;2.23;;;;;;;;;;4918269;29;20673;-66
2023/07/31 02:53:20;;;;;;;2.20;2.00;;;;;;;;;;4918652;29;20209;-66
2023/07/31 02:55:47;;;;;;;5.87;2.07;;;;;;;;;;4951053;29;20225;-66
2023/07/31 02:58:31;;;;;;;3.63;2.00;;;;;;;;;;4954555;29;20174;-66
2023/07/31 03:00:58;;;;;;;5.60;2.50;;;;;;;;;;4954852;29;20249;-66
2023/07/31 03:03:25;;;;;;;4.43;2.33;;;;;;;;;;4954483;29;20194;-66
2023/07/31 03:05:52;;;;;;;9.50;3.50;;;;;;;;;;4954270;29;20178;-66
2023/07/31 03:08:19;;;;;;;4.30;2.60;;;;;;;;;;4954651;29;20610;-66
2023/07/31 03:10:46;;;;;;;3.40;2.40;;;;;;;;;;4937156;29;20233;-66
2023/07/31 03:13:13;;;;;;;4.33;2.73;;;;;;;;;;4936566;29;20206;-66
2023/07/31 03:15:41;;;;;;;6.00;2.43;;;;;;;;;;4954127;29;20241;-66
2023/07/31 03:18:26;;;;;;;3.27;2.70;;;;;;;;;;4936544;29;20245;-66
2023/07/31 03:20:53;;;;;;;7.03;2.90;;;;;;;;;;4954032;29;20249;-66
2023/07/31 03:23:38;;;;;;;4.30;2.70;;;;;;;;;;4936952;29;20192;-66
2023/07/31 03:26:05;;;;;;;5.57;2.87;;;;;;;;;;4936308;29;20202;-66
2023/07/31 03:28:49;;;;;;;5.80;3.07;;;;;;;;;;4953778;29;20197;-65
2023/07/31 03:31:16;;;;;;;7.47;3.40;;;;;;;;;;4953650;29;20241;-66
2023/07/31 03:33:43;;;;;;;4.77;3.13;;;;;;;;;;4953591;29;20214;-66
2023/07/31 03:36:09;;;;;;;4.97;3.43;;;;;;;;;;4952023;29;20301;-66
2023/07/31 03:38:36;;;;;;;8.23;3.30;;;;;;;;;;4954128;29;20202;-66
2023/07/31 03:41:03;;;;;;;6.53;3.40;;;;;;;;;;4953612;28;20181;-65
2023/07/31 03:43:30;;;;;;;6.23;3.13;;;;;;;;;;4954590;29;20198;-66
2023/07/31 03:45:56;;;;;;;5.97;3.23;;;;;;;;;;4954837;29;20293;-66
2023/07/31 03:48:24;;;;;;;7.03;3.37;;;;;;;;;;4953327;28;20332;-66
2023/07/31 03:50:50;;;;;;;6.10;3.13;;;;;;;;;;4953460;29;20257;-66
2023/07/31 03:53:17;;;;;;;6.73;3.53;;;;;;;;;;4953522;29;20550;-66
2023/07/31 03:55:44;;;;;;;6.30;3.97;;;;;;;;;;4937369;29;20199;-66
2023/07/31 03:58:11;;;;;;;8.63;3.80;;;;;;;;;;4934121;29;20194;-66
2023/07/31 04:00:37;;;;;;;7.87;3.50;;;;;;;;;;4934015;29;20193;-67
2023/07/31 04:03:04;;;;;;;7.50;3.27;;;;;;;;;;4916834;29;20208;-66
2023/07/31 04:05:31;;;;;;;7.97;3.70;;;;;;;;;;4932862;29;20197;-66
2023/07/31 04:07:58;;;;;;;7.80;3.30;;;;;;;;;;4934026;29;20190;-66
2023/07/31 04:10:24;;;;;;;7.87;3.57;;;;;;;;;;4933900;29;20630;-66
2023/07/31 04:12:51;;;;;;;5.23;3.20;;;;;;;;;;4933884;29;20926;-66
2023/07/31 04:15:18;;;;;;;8.13;3.63;;;;;;;;;;4933621;29;20242;-66
2023/07/31 04:18:02;;;;;;;9.63;3.53;;;;;;;;;;4933749;29;20197;-66
2023/07/31 04:20:29;;;;;;;7.87;3.60;;;;;;;;;;4933941;29;20183;-66
2023/07/31 04:23:13;;;;;;;9.47;3.80;;;;;;;;;;4933506;29;20175;-66
2023/07/31 04:25:39;;;;;;;9.30;4.20;;;;;;;;;;4933482;29;20191;-66
2023/07/31 04:28:25;;;;;;;8.63;4.23;;;;;;;;;;4933523;29;20642;-66
2023/07/31 04:30:53;;;;;;;5.90;3.20;;;;;;;;;;4933411;29;20202;-66
2023/07/31 04:33:37;;;;;;;6.83;3.50;;;;;;;;;;4933510;29;20342;-66
2023/07/31 04:36:04;;;;;;;10.73;3.53;;;;;;;;;;4933120;29;20202;-67
2023/07/31 04:38:31;;;;;;;7.53;3.73;;;;;;;;;;4933733;29;20195;-66
2023/07/31 04:40:57;;;;;;;9.73;3.60;;;;;;;;;;4933358;29;20194;-66
2023/07/31 04:43:24;;;;;;;6.27;2.80;;;;;;;;;;4933341;29;20203;-66
2023/07/31 04:45:53;;;;;;;5.83;2.83;;;;;;;;;;4933372;29;20193;-66
2023/07/31 04:48:20;;;;;;;8.47;3.13;;;;;;;;;;4933363;29;20234;-66
2023/07/31 04:50:47;;;;;;;7.73;3.60;;;;;;;;;;4933440;29;20262;-66
2023/07/31 04:53:31;;;;;;;6.67;2.93;;;;;;;;;;4933367;29;20928;-66
2023/07/31 04:55:57;;;;;;;7.30;3.47;;;;;;;;;;4950336;29;20190;-66
2023/07/31 04:58:42;;;;;;;6.67;3.50;;;;;;;;;;4952059;29;20158;-66
2023/07/31 05:01:09;;;;;;;6.57;3.20;;;;;;;;;;4952210;29;20186;-66
2023/07/31 05:03:35;;;;;;;7.83;2.90;;;;;;;;;;4952329;29;20614;-66
2023/07/31 05:06:02;;;;;;;5.50;2.67;;;;;;;;;;4951717;28;20636;-66
2023/07/31 05:08:29;;;;;;;8.43;3.03;;;;;;;;;;4951077;29;20292;-66
2023/07/31 05:10:56;;;;;;;5.40;2.87;;;;;;;;;;4934503;29;20253;-67
2023/07/31 05:13:22;;;;;;;7.70;2.53;;;;;;;;;;4951687;29;20732;-67
2023/07/31 05:15:49;;;;;;;8.57;2.80;;;;;;;;;;4951808;29;20198;-67
2023/07/31 05:18:33;;;;;;;5.63;2.57;;;;;;;;;;4951770;29;20252;-67
2023/07/31 05:21:00;;;;;;;6.23;2.80;;;;;;;;;;4951726;29;20214;-67
2023/07/31 05:23:44;;;;;;;7.70;2.23;;;;;;;;;;4952107;29;20661;-67
2023/07/31 05:26:11;;;;;;;6.60;2.50;;;;;;;;;;4951637;29;20988;-67
2023/07/31 05:28:38;;;;;;;6.13;2.30;;;;;;;;;;4951712;29;20186;-67
2023/07/31 05:31:05;;;;;;;8.07;2.17;;;;;;;;;;4934178;29;20225;-67
2023/07/31 05:33:32;;;;;;;6.07;2.80;;;;;;;;;;4934530;29;20240;-66
2023/07/31 05:35:59;;;;;;;9.47;2.50;;;;;;;;;;4951673;29;20213;-66
2023/07/31 05:38:25;;;;;;;4.87;2.40;;;;;;;;;;4934855;29;20205;-66
2023/07/31 05:40:54;;;;;;;5.60;2.10;;;;;;;;;;4951289;29;20198;-67
2023/07/31 05:43:20;;;;;;;7.70;2.77;;;;;;;;;;4951407;29;20202;-66
2023/07/31 05:45:47;;;;;;;6.00;2.80;;;;;;;;;;4951461;29;20185;-66
2023/07/31 05:48:14;;;;;;;4.33;2.57;;;;;;;;;;4951202;28;20261;-66
2023/07/31 05:50:58;;;;;;;7.70;2.50;;;;;;;;;;4934099;29;20692;-67
2023/07/31 05:53:25;;;;;;;4.70;2.07;;;;;;;;;;4951567;29;20206;-67
2023/07/31 05:55:51;;;;;;;6.70;2.23;;;;;;;;;;4934751;29;21152;-67
2023/07/31 05:58:18;;;;;;;6.57;2.63;;;;;;;;;;4932260;29;20623;-67
2023/07/31 06:00:45;;;;;;;7.97;2.37;;;;;;;;;;4932005;29;20218;-66
2023/07/31 06:03:12;;;;;;;5.57;2.17;;;;;;;;;;4932094;29;20257;-67
2023/07/31 06:05:39;;;;;;;3.90;1.90;;;;;;;;;;4937718;29;20189;-67
2023/07/31 06:08:05;;;;;;;5.17;2.17;;;;;;;;;;4921198;29;20201;-67
2023/07/31 06:10:49;;;;;;;7.63;1.90;;;;;;;;;;4921288;29;20265;-66
2023/07/31 06:13:16;;;;;;;3.87;2.00;;;;;;;;;;4938274;29;20202;-66
2023/07/31 06:15:43;;;;;;;6.10;2.30;;;;;;;;;;4938110;29;20222;-66
2023/07/31 06:18:10;;;;;;;6.87;2.23;;;;;;;;;;4937882;29;20599;-67
2023/07/31 06:20:37;;;;;;;5.10;2.10;;;;;;;;;;4937532;29;20954;-66
2023/07/31 06:23:04;;;;;;;8.03;2.20;;;;;;;;;;4921167;29;20222;-67
2023/07/31 06:25:31;;;;;;;4.40;2.00;;;;;;;;;;4938390;29;20196;-67
2023/07/31 06:27:58;;;;;;;5.57;1.87;;;;;;;;;;4938066;29;20285;-67
2023/07/31 06:30:24;;;;;;;9.70;2.63;;;;;;;;;;4938194;29;20283;-67
2023/07/31 06:32:51;;;;;;;4.07;1.90;;;;;;;;;;4936794;29;20195;-67
2023/07/31 06:35:18;;;;;;;5.17;2.10;;;;;;;;;;4938418;29;20233;-67
2023/07/31 06:37:45;;;;;;;5.87;2.10;;;;;;;;;;4937875;29;20226;-67
2023/07/31 06:40:12;;;;;;;6.33;2.00;;;;;;;;;;4938134;29;20205;-67
2023/07/31 06:42:38;;;;;;;5.63;1.93;;;;;;;;;;4937852;29;20289;-67
2023/07/31 06:45:06;;;;;;;4.43;1.83;;;;;;;;;;4937740;29;20194;-67
2023/07/31 06:47:32;;;;;;;5.27;1.70;;;;;;;;;;4937837;29;20238;-67
2023/07/31 06:49:59;;;;;;;7.20;2.17;;;;;;;;;;4938133;29;20209;-67
2023/07/31 06:52:26;;;;;;;7.83;1.80;;;;;;;;;;4937874;29;20194;-67
2023/07/31 06:55:12;;;;;;;4.53;1.93;;;;;;;;;;4929701;29;20701;-67
2023/07/31 06:57:39;;;;;;;4.67;1.90;;;;;;;;;;4956952;29;20194;-67
2023/07/31 07:00:06;;;;;;;5.57;2.00;;;;;;;;;;4957631;28;20279;-67
2023/07/31 07:02:32;;;;;;;6.37;1.83;;;;;;;;;;4958077;29;20685;-67
2023/07/31 07:04:59;;;;;;;5.13;1.60;;;;;;;;;;4958741;28;20201;-67
2023/07/31 07:07:26;;;;;;;4.10;1.73;;;;;;;;;;4957684;28;20243;-67
2023/07/31 07:09:53;;;;;;;6.70;2.30;;;;;;;;;;4956996;28;20557;-67
2023/07/31 07:12:37;;;;;;;5.57;1.27;;;;;;;;;;4956857;28;20189;-67
2023/07/31 07:15:04;;;;;;;3.30;1.40;;;;;;;;;;4956688;28;20217;-67
2023/07/31 07:17:33;;;;;;;5.70;1.60;;;;;;;;;;4954404;29;20198;-67
2023/07/31 07:20:00;;;;;;;3.93;1.63;;;;;;;;;;4953905;29;20244;-67
2023/07/31 07:22:27;;;;;;;3.67;1.73;;;;;;;;;;4936806;29;20218;-67
2023/07/31 07:25:11;;;;;;;4.37;1.40;;;;;;;;;;4953971;29;20178;-67
2023/07/31 07:27:38;;;;;;;3.83;1.40;;;;;;;;;;4953837;29;20194;-67
2023/07/31 07:30:05;;;;;;;4.47;1.37;;;;;;;;;;4953799;29;20197;-66
2023/07/31 07:32:32;;;;;;;3.87;1.37;;;;;;;;;;4953910;29;20202;-65
2023/07/31 07:34:59;;;;;;;5.77;1.60;;;;;;;;;;4953690;29;20296;-65
2023/07/31 07:37:25;;;;;;;2.57;1.30;;;;;;;;;;4953483;29;20250;-66
2023/07/31 07:39:52;;;;;;;4.63;1.60;;;;;;;;;;4953619;29;20194;-65
2023/07/31 07:42:19;;;;;;;3.77;1.40;;;;;;;;;;4953872;29;20257;-65
2023/07/31 07:44:45;;;;;;;2.00;1.03;;;;;;;;;;4953497;29;20208;-66
2023/07/31 07:47:12;;;;;;;4.30;1.40;;;;;;;;;;4953313;29;20239;-65
2023/07/31 07:49:39;;;;;;;3.70;1.30;;;;;;;;;;4953474;29;20198;-66
2023/07/31 07:52:23;;;;;;;3.80;1.37;;;;;;;;;;4953358;29;20174;-65
2023/07/31 07:54:50;;;;;;;3.07;1.23;;;;;;;;;;4944796;29;20211;-65
2023/07/31 07:57:37;;;;;;;3.97;1.50;;;;;;;;;;4934053;29;20194;-66
2023/07/31 08:00:04;;;;;;;4.10;1.20;;;;;;;;;;4932862;29;20195;-65
2023/07/31 08:02:39;;;;;;;3.43;0.90;;;;;;;;;;4934290;29;20723;-66
2023/07/31 08:05:06;;;;;;;2.80;1.00;;;;;;;;;;4934036;29;20202;-66
2023/07/31 08:07:33;;;;;;;2.90;1.00;;;;;;;;;;4934158;29;20210;-66
2023/07/31 08:09:59;;;;;;;2.20;1.10;;;;;;;;;;4933966;29;20205;-65
2023/07/31 08:12:26;;;;;;;2.23;1.17;;;;;;;;;;4933786;29;20197;-66
2023/07/31 08:15:10;;;;;;;3.23;1.23;;;;;;;;;;4919489;29;20371;-66
2023/07/31 08:17:37;;;;;;;2.43;1.10;;;;;;;;;;4934003;29;20218;-66
2023/07/31 08:20:04;;;;;;;1.97;1.00;;;;;;;;;;4933841;29;20202;-66
2023/07/31 08:22:31;;;;;;;2.10;1.00;;;;;;;;;;4933888;29;20206;-66
2023/07/31 08:24:58;;;;;;;3.80;0.90;;;;;;;;;;4933985;29;20199;-66
2023/07/31 08:27:45;;;;;;;3.47;1.10;;;;;;;;;;4932920;29;20179;-66
2023/07/31 08:30:11;;;;;;;2.43;1.10;;;;;;;;;;4933420;29;20191;-66
2023/07/31 08:32:38;;;;;;;2.83;0.90;;;;;;;;;;4934076;29;20234;-66
2023/07/31 08:35:05;;;;;;;1.53;0.90;;;;;;;;;;4933499;29;20211;-66
2023/07/31 08:37:32;;;;;;;1.07;0.73;;;;;;;;;;4916495;29;20201;-66
2023/07/31 08:39:59;;;;;;;2.23;1.10;;;;;;;;;;4933546;29;20188;-66
2023/07/31 08:42:26;;;;;;;3.37;1.30;;;;;;;;;;4933474;29;20192;-66
2023/07/31 08:44:55;;;;;;;2.43;0.80;;;;;;;;;;4916834;29;20199;-66
2023/07/31 08:47:40;;;;;;;2.00;1.07;;;;;;;;;;4933720;29;20289;-66
2023/07/31 08:50:07;;;;;;;2.43;0.90;;;;;;;;;;4933248;29;20198;-66
2023/07/31 08:52:34;;;;;;;5.07;1.00;;;;;;;;;;4916392;29;20651;-66
2023/07/31 08:55:01;;;;;;;1.37;0.80;;;;;;;;;;4925898;29;20265;-66
2023/07/31 08:57:28;;;;;;;2.60;0.90;;;;;;;;;;4952207;29;20213;-66
2023/07/31 08:59:55;;;;;;;1.10;0.70;;;;;;;;;;4952094;29;20179;-66
2023/07/31 09:02:21;;;;;;;1.43;0.80;;;;;;;;;;4951424;28;20198;-66
2023/07/31 09:04:48;;;;;;;1.83;0.70;;;;;;;;;;4952055;29;20301;-66
2023/07/31 09:07:33;;;;;;;2.93;1.00;;;;;;;;;;4937638;29;20728;-66
2023/07/31 09:10:00;;;;;;;1.80;0.80;;;;;;;;;;4952094;29;20178;-66
2023/07/31 09:12:45;;;;;;;3.80;1.10;;;;;;;;;;4938809;29;20183;-66
2023/07/31 09:15:11;;;;;;;2.83;0.70;;;;;;;;;;4936160;29;20593;-66
2023/07/31 09:18:00;;;;;;;1.77;0.87;;;;;;;;;;4952356;29;20622;-66
2023/07/31 09:20:27;;;;;;;1.30;0.70;;;;;;;;;;4952091;29;20213;-67
2023/07/31 09:22:54;;;;;;;3.57;1.00;;;;;;;;;;4951802;29;20270;-66
2023/07/31 09:25:22;;;;;;;1.97;0.90;;;;;;;;;;4950814;28;20206;-66
2023/07/31 09:27:58;;;;;;;2.23;0.80;;;;;;;;;;4934252;29;20221;-66
2023/07/31 09:30:44;;;;;;;3.70;0.80;;;;;;;;;;4951511;29;21040;-66
2023/07/31 09:33:11;;;;;;;2.77;1.00;;;;;;;;;;4951613;29;20193;-66
2023/07/31 09:35:40;;;;;;;2.03;0.63;;;;;;;;;;4951623;29;20555;-66
2023/07/31 09:38:07;;;;;;;2.20;1.00;;;;;;;;;;4951255;29;20190;-67
2023/07/31 09:40:38;;;;;;;3.03;0.90;;;;;;;;;;4933507;29;20190;-66
2023/07/31 09:43:11;;;;;;;3.00;1.00;;;;;;;;;;4951405;28;20205;-66
2023/07/31 09:45:39;;;;;;;2.80;1.00;;;;;;;;;;4951265;29;20190;-66
2023/07/31 09:48:09;;;;;;;2.60;1.00;;;;;;;;;;4951125;29;20239;-66
2023/07/31 09:50:36;;;;;;;2.97;1.10;;;;;;;;;;4951295;29;20281;-66
2023/07/31 09:53:03;;;;;;;1.53;0.63;;;;;;;;;;4951205;29;20178;-66
2023/07/31 09:55:47;;;;;;;1.53;0.80;;;;;;;;;;4934966;29;20213;-66
2023/07/31 09:58:14;;;;;;;1.20;0.90;;;;;;;;;;4914885;29;20197;-66
2023/07/31 10:00:59;;;;;;;1.60;0.90;;;;;;;;;;4917579;29;20266;-67
2023/07/31 10:03:28;;;;;;;2.00;1.00;;;;;;;;;;4931931;29;20198;-66
2023/07/31 10:05:55;;;;;;;2.70;0.70;;;;;;;;;;4914859;29;20278;-65
2023/07/31 10:08:23;;;;;;;2.00;1.00;;;;;;;;;;4932186;29;20199;-65
2023/07/31 10:10:50;;;;;;;3.13;1.53;;;;;;;;;;4932021;29;20179;-65
2023/07/31 10:13:17;;;;;;;1.93;0.80;;;;;;;;;;4932144;29;20527;-66
2023/07/31 10:15:43;;;;;;;1.77;0.80;;;;;;;;;;4914828;29;20238;-66
2023/07/31 10:18:10;;;;;;;2.77;1.40;;;;;;;;;;4932084;29;20205;-66
2023/07/31 10:20:37;;;;;;;1.53;0.90;;;;;;;;;;4914998;29;20205;-66
2023/07/31 10:23:04;;;;;;;2.33;0.87;;;;;;;;;;4914715;29;20203;-66
2023/07/31 10:25:30;;;;;;;3.03;0.80;;;;;;;;;;4930535;29;20190;-66
2023/07/31 10:28:15;;;;;;;2.53;0.80;;;;;;;;;;4917218;29;20181;-67
2023/07/31 10:30:41;;;;;;;1.60;0.83;;;;;;;;;;4930522;29;20293;-66
2023/07/31 10:33:08;;;;;;;1.47;0.70;;;;;;;;;;4931672;29;20190;-66
2023/07/31 10:35:35;;;;;;;1.23;0.70;;;;;;;;;;4931804;29;20209;-66
2023/07/31 10:38:09;;;;;;;1.67;0.83;;;;;;;;;;4931925;29;20183;-66
2023/07/31 10:40:36;;;;;;;3.97;1.10;;;;;;;;;;4914859;29;20199;-66
2023/07/31 10:43:02;;;;;;;2.00;0.90;;;;;;;;;;4914525;29;20739;-66
2023/07/31 10:45:36;;;;;;;2.27;0.80;;;;;;;;;;4931855;29;20232;-66
2023/07/31 10:48:21;;;;;;;1.17;0.67;;;;;;;;;;4931429;29;20238;-66
2023/07/31 10:50:51;;;;;;;1.60;0.77;;;;;;;;;;4916591;29;20524;-65
2023/07/31 10:53:22;;;;;;;1.33;0.70;;;;;;;;;;4934075;29;20666;-67
2023/07/31 10:55:51;;;;;;;1.73;0.93;;;;;;;;;;4951133;29;20298;-65
2023/07/31 10:58:18;;;;;;;2.37;0.97;;;;;;;;;;4937698;29;20204;-65
2023/07/31 11:00:45;;;;;;;1.17;0.70;;;;;;;;;;4953150;29;20212;-65
2023/07/31 11:03:15;;;;;;;2.73;1.20;;;;;;;;;;4954188;29;20197;-65
2023/07/31 11:05:42;;;;;;;1.17;0.90;;;;;;;;;;4954213;29;20209;-66
2023/07/31 11:08:27;;;;;;;1.93;1.13;;;;;;;;;;4954318;29;20726;-65
2023/07/31 11:11:03;;;;;;;2.70;1.00;;;;;;;;;;4953935;29;20190;-66
2023/07/31 11:13:39;;;;;;;1.97;1.13;;;;;;;;;;4954182;29;20262;-65
2023/07/31 11:16:06;;;;;;;3.13;1.10;;;;;;;;;;4953710;29;20206;-65
2023/07/31 11:18:33;;;;;;;2.57;1.00;;;;;;;;;;4954308;29;20197;-65
2023/07/31 11:21:00;;;;;;;2.73;0.90;;;;;;;;;;4953869;29;20269;-65
2023/07/31 11:23:27;;;;;;;1.40;1.00;;;;;;;;;;4953934;29;20194;-66
2023/07/31 11:26:11;;;;;;;3.40;1.20;;;;;;;;;;4953789;29;20183;-66
2023/07/31 11:28:38;;;;;;;2.33;1.17;;;;;;;;;;4936404;29;20289;-66
2023/07/31 11:31:22;;;;;;;2.57;1.30;;;;;;;;;;4953662;29;20277;-66
2023/07/31 11:33:49;;;;;;;2.37;1.23;;;;;;;;;;4953847;29;20202;-66
2023/07/31 11:36:16;;;;;;;3.00;1.10;;;;;;;;;;4953268;29;20222;-66
2023/07/31 11:38:43;;;;;;;2.40;0.90;;;;;;;;;;4953870;29;20205;-66
2023/07/31 11:41:09;;;;;;;5.07;1.40;;;;;;;;;;4952248;28;20198;-66
2023/07/31 11:43:36;;;;;;;2.53;1.10;;;;;;;;;;4952163;29;20225;-66
2023/07/31 11:46:03;;;;;;;2.03;1.30;;;;;;;;;;4953346;29;20803;-66
2023/07/31 11:48:33;;;;;;;3.17;1.23;;;;;;;;;;4953353;29;20260;-66
2023/07/31 11:51:17;;;;;;;2.47;1.00;;;;;;;;;;4953136;29;20171;-66
2023/07/31 11:53:48;;;;;;;4.20;1.20;;;;;;;;;;4936626;29;20202;-66
2023/07/31 11:56:19;;;;;;;3.07;1.10;;;;;;;;;;4953190;29;20238;-66
2023/07/31 11:58:46;;;;;;;3.03;1.10;;;;;;;;;;4953040;29;20190;-66
2023/07/31 12:01:16;;;;;;;4.93;1.30;;;;;;;;;;4952970;29;20282;-66
2023/07/31 12:04:01;;;;;;;1.93;1.03;;;;;;;;;;4938296;29;20606;-66
2023/07/31 12:06:45;;;;;;;2.37;1.40;;;;;;;;;;4953873;29;20174;-66
2023/07/31 12:09:29;;;;;;;5.27;1.10;;;;;;;;;;4954811;29;20188;-66
2023/07/31 12:11:55;;;;;;;4.57;1.57;;;;;;;;;;4953049;29;20670;-65
2023/07/31 12:14:26;;;;;;;2.07;1.20;;;;;;;;;;4953084;29;20569;-66
2023/07/31 12:17:00;;;;;;;2.40;1.20;;;;;;;;;;4935788;29;20289;-65
2023/07/31 12:19:29;;;;;;;3.17;1.23;;;;;;;;;;4952918;29;20170;-66
2023/07/31 12:21:56;;;;;;;3.40;1.53;;;;;;;;;;4952569;29;20526;-65
2023/07/31 12:24:23;;;;;;;4.27;1.40;;;;;;;;;;4952473;29;20234;-66
2023/07/31 12:26:50;;;;;;;4.63;1.33;;;;;;;;;;4952565;29;20190;-66
2023/07/31 12:29:16;;;;;;;2.97;1.10;;;;;;;;;;4952826;29;20205;-66
2023/07/31 12:31:43;;;;;;;3.70;1.40;;;;;;;;;;4952396;29;20198;-66
2023/07/31 12:34:21;;;;;;;4.30;1.33;;;;;;;;;;4952787;29;20520;-66
2023/07/31 12:36:49;;;;;;;3.83;1.27;;;;;;;;;;4936224;29;20321;-66
2023/07/31 12:39:35;;;;;;;4.10;1.40;;;;;;;;;;4952434;29;20192;-66
2023/07/31 12:42:02;;;;;;;3.13;1.47;;;;;;;;;;4952387;29;20197;-66
2023/07/31 12:44:29;;;;;;;2.47;1.27;;;;;;;;;;4952733;29;20198;-66
2023/07/31 12:46:58;;;;;;;2.70;1.13;;;;;;;;;;4952073;28;20242;-66
2023/07/31 12:49:24;;;;;;;3.07;1.40;;;;;;;;;;4952565;29;20205;-66
2023/07/31 12:51:51;;;;;;;2.53;1.20;;;;;;;;;;4952194;29;20238;-66
2023/07/31 12:54:18;;;;;;;4.33;1.60;;;;;;;;;;4951925;29;20194;-66
2023/07/31 12:56:47;;;;;;;4.80;1.60;;;;;;;;;;4952285;29;20617;-65
2023/07/31 12:59:14;;;;;;;5.57;1.50;;;;;;;;;;4952184;29;20194;-66
2023/07/31 13:01:41;;;;;;;3.97;1.43;;;;;;;;;;4952103;29;20193;-66
2023/07/31 13:04:08;;;;;;;4.47;1.50;;;;;;;;;;4951873;29;20233;-66
2023/07/31 13:06:35;;;;;;;7.87;2.00;;;;;;;;;;4951602;29;20615;-66
2023/07/31 13:09:02;;;;;;;6.33;1.80;;;;;;;;;;4952040;29;20202;-67
2023/07/31 13:11:28;;;;;;;6.03;1.80;;;;;;;;;;4934725;29;20194;-66
2023/07/31 13:13:57;;;;;;;3.87;1.53;;;;;;;;;;4951688;28;20200;-65
2023/07/31 13:16:24;;;;;;;2.63;1.47;;;;;;;;;;4951508;29;20288;-66
2023/07/31 13:18:53;;;;;;;5.63;1.80;;;;;;;;;;4951729;29;21043;-66
2023/07/31 13:21:38;;;;;;;4.90;1.80;;;;;;;;;;4951690;29;20178;-66
2023/07/31 13:24:04;;;;;;;6.40;1.80;;;;;;;;;;4951391;29;20202;-67
2023/07/31 13:26:31;;;;;;;4.93;1.50;;;;;;;;;;4951984;29;20213;-66
2023/07/31 13:28:58;;;;;;;4.23;2.07;;;;;;;;;;4934808;29;20214;-66
2023/07/31 13:31:25;;;;;;;3.60;1.57;;;;;;;;;;4951406;29;20547;-67
2023/07/31 13:34:11;;;;;;;2.73;1.40;;;;;;;;;;4951723;29;20278;-66
2023/07/31 13:36:38;;;;;;;3.87;1.50;;;;;;;;;;4951591;29;20237;-66
2023/07/31 13:39:05;;;;;;;3.60;1.60;;;;;;;;;;4951407;29;20202;-67
2023/07/31 13:41:32;;;;;;;2.60;1.40;;;;;;;;;;4950406;29;20321;-66
2023/07/31 13:43:59;;;;;;;2.77;1.40;;;;;;;;;;4951229;29;20245;-67
2023/07/31 13:46:25;;;;;;;3.93;1.47;;;;;;;;;;4951331;29;20194;-66
2023/07/31 13:48:55;;;;;;;3.00;1.10;;;;;;;;;;4918535;29;20194;-66
2023/07/31 13:51:22;;;;;;;4.17;1.20;;;;;;;;;;4951132;29;20258;-66
2023/07/31 13:53:49;;;;;;;4.67;1.40;;;;;;;;;;4951527;29;20179;-67
2023/07/31 13:56:15;;;;;;;2.97;1.50;;;;;;;;;;4951108;29;20210;-66
2023/07/31 13:58:42;;;;;;;3.90;1.47;;;;;;;;;;4933946;29;20205;-66
2023/07/31 14:01:09;;;;;;;2.93;1.40;;;;;;;;;;4951034;29;20209;-67
2023/07/31 14:03:36;;;;;;;3.80;1.50;;;;;;;;;;4950999;29;20234;-66
2023/07/31 14:06:03;;;;;;;2.13;1.37;;;;;;;;;;4950894;29;20194;-66
2023/07/31 14:08:47;;;;;;;2.47;1.27;;;;;;;;;;4951323;29;20174;-66
2023/07/31 14:11:13;;;;;;;7.67;2.33;;;;;;;;;;4950898;29;20202;-67
2023/07/31 14:13:58;;;;;;;1.80;1.30;;;;;;;;;;4951036;29;20170;-67
2023/07/31 14:16:24;;;;;;;2.00;1.30;;;;;;;;;;4950870;29;20206;-66
2023/07/31 14:19:08;;;;;;;2.73;1.40;;;;;;;;;;4951384;29;20170;-66
2023/07/31 14:21:35;;;;;;;1.67;1.20;;;;;;;;;;4952409;29;20171;-67
2023/07/31 14:24:02;;;;;;;4.73;1.40;;;;;;;;;;4951629;28;20210;-66
2023/07/31 14:26:29;;;;;;;2.47;0.83;;;;;;;;;;4953774;28;20241;-66
2023/07/31 14:28:55;;;;;;;2.83;0.90;;;;;;;;;;4954632;29;20196;-66
2023/07/31 14:31:22;;;;;;;1.33;1.10;;;;;;;;;;4954939;29;20213;-66
2023/07/31 14:33:49;;;;;;;1.50;1.00;;;;;;;;;;4954956;29;20190;-66
2023/07/31 14:36:16;;;;;;;1.77;1.10;;;;;;;;;;4954226;29;20214;-66
2023/07/31 14:39:00;;;;;;;2.87;1.10;;;;;;;;;;4954777;29;20612;-66
2023/07/31 14:41:27;;;;;;;1.73;1.10;;;;;;;;;;4954852;29;20658;-66
2023/07/31 14:44:11;;;;;;;2.27;1.20;;;;;;;;;;4954535;29;20182;-66
2023/07/31 14:46:38;;;;;;;2.10;1.30;;;;;;;;;;4954452;29;20811;-66
2023/07/31 14:49:05;;;;;;;1.87;1.40;;;;;;;;;;4954190;29;20586;-67
2023/07/31 14:51:32;;;;;;;2.53;1.00;;;;;;;;;;4954318;29;20288;-66
2023/07/31 14:53:59;;;;;;;2.70;1.20;;;;;;;;;;4935554;29;20554;-66
2023/07/31 14:56:27;;;;;;;2.40;1.40;;;;;;;;;;4935413;29;20257;-66
2023/07/31 14:58:54;;;;;;;5.73;1.27;;;;;;;;;;4935020;29;20195;-67
2023/07/31 15:01:21;;;;;;;2.03;1.17;;;;;;;;;;4935311;29;20195;-66
2023/07/31 15:03:48;;;;;;;1.40;1.30;;;;;;;;;;4935261;29;20658;-66
2023/07/31 15:06:15;;;;;;;3.67;1.30;;;;;;;;;;4935074;29;20211;-66
2023/07/31 15:08:42;;;;;;;2.80;1.23;;;;;;;;;;4935484;29;20274;-66
2023/07/31 15:11:09;;;;;;;3.20;1.40;;;;;;;;;;4935090;29;20190;-66
2023/07/31 15:13:36;;;;;;;2.70;1.27;;;;;;;;;;4934845;29;20262;-67
2023/07/31 15:16:02;;;;;;;4.77;1.50;;;;;;;;;;4934989;29;20286;-67
2023/07/31 15:18:46;;;;;;;2.47;1.10;;;;;;;;;;4935274;29;20194;-66
2023/07/31 15:21:13;;;;;;;4.60;1.37;;;;;;;;;;4935154;29;20191;-66
2023/07/31 15:23:58;;;;;;;1.97;1.20;;;;;;;;;;4935231;29;20240;-66
2023/07/31 15:26:25;;;;;;;2.57;1.20;;;;;;;;;;4934803;29;20199;-66
2023/07/31 15:29:11;;;;;;;2.00;1.20;;;;;;;;;;4935037;29;20174;-66
2023/07/31 15:31:38;;;;;;;1.53;1.13;;;;;;;;;;4935335;29;20243;-66
2023/07/31 15:34:22;;;;;;;2.40;1.27;;;;;;;;;;4918546;29;20270;-67